createdAt,value
2023-01-25T00:02:42.776Z,1.08
2023-01-25T00:05:48.181Z,1.10
2023-01-25T00:08:57.236Z,1.14
2023-01-25T00:12:02.837Z,1.15
2023-01-25T00:15:11.109Z,1.09
2023-01-25T00:18:16.563Z,1.02
2023-01-25T00:21:27.196Z,1.00
2023-01-25T00:24:35.348Z,0.98
2023-01-25T00:27:42.048Z,1.04
2023-01-25T00:30:47.466Z,1.12
2023-01-25T00:34:00.167Z,1.10
2023-01-25T00:37:16.097Z,1.10
2023-01-25T00:40:25.258Z,1.05
2023-01-25T00:43:30.672Z,1.05
2023-01-25T00:46:36.902Z,1.08
2023-01-25T00:49:46.899Z,1.13
2023-01-25T00:52:53.876Z,1.13
2023-01-25T00:56:02.079Z,1.11
2023-01-25T00:59:10.272Z,1.13
2023-01-25T01:02:15.913Z,1.14
2023-01-25T01:05:22.194Z,1.18
2023-01-25T01:08:27.907Z,1.22
2023-01-25T01:11:37.245Z,1.18
2023-01-25T01:14:42.670Z,1.18
2023-01-25T01:17:49.154Z,1.20
2023-01-25T01:20:56.283Z,1.22
2023-01-25T01:24:03.191Z,1.25
2023-01-25T01:27:11.828Z,1.24
2023-01-25T01:30:19.220Z,1.22
2023-01-25T01:33:24.575Z,1.22
2023-01-25T01:36:33.462Z,1.14
2023-01-25T01:39:40.275Z,1.08
2023-01-25T01:43:05.759Z,1.01
2023-01-25T01:46:25.305Z,1.11
2023-01-25T01:49:36.265Z,1.16
2023-01-25T01:52:53.991Z,1.20
2023-01-25T01:56:08.726Z,1.21
2023-01-25T01:59:17.723Z,1.22
2023-01-25T02:02:29.340Z,1.24
2023-01-25T02:05:48.954Z,1.25
2023-01-25T02:08:57.745Z,1.25
2023-01-25T02:12:05.225Z,1.24
2023-01-25T02:15:16.053Z,1.27
2023-01-25T02:18:23.371Z,1.28
2023-01-25T02:21:44.122Z,1.17
2023-01-25T02:25:07.621Z,1.07
2023-01-25T02:28:24.307Z,0.91
2023-01-25T02:31:29.994Z,1.04
2023-01-25T02:34:39.319Z,1.07
2023-01-25T02:37:46.972Z,1.10
2023-01-25T02:41:05.416Z,1.12
2023-01-25T02:44:15.861Z,1.14
2023-01-25T02:47:22.335Z,1.17
2023-01-25T02:50:27.695Z,1.19
2023-01-25T02:53:33.976Z,1.22
2023-01-25T02:56:43.705Z,1.25
2023-01-25T02:59:50.804Z,1.22
2023-01-25T03:02:57.199Z,1.16
2023-01-25T03:06:03.699Z,1.15
2023-01-25T03:09:13.179Z,1.17
2023-01-25T03:12:27.046Z,1.20
2023-01-25T03:15:32.780Z,1.20
2023-01-25T03:18:40.149Z,1.22
2023-01-25T03:21:46.873Z,1.25
2023-01-25T03:24:53.823Z,1.25
2023-01-25T03:28:02.790Z,1.31
2023-01-25T03:31:11.422Z,0.70
2023-01-25T03:34:17.362Z,1.39
2023-01-25T03:37:24.250Z,1.39
2023-01-25T03:40:29.755Z,1.43
2023-01-25T03:43:39.165Z,1.42
2023-01-25T03:46:45.796Z,1.48
2023-01-25T03:49:52.171Z,1.50
2023-01-25T03:53:27.536Z,1.52
2023-01-25T03:56:34.176Z,1.54
2023-01-25T03:59:48.497Z,1.56
2023-01-25T04:02:55.305Z,1.55
2023-01-25T04:06:02.129Z,1.57
2023-01-25T04:09:10.898Z,1.59
2023-01-25T04:12:19.824Z,1.60
2023-01-25T04:15:29.449Z,1.64
2023-01-25T04:18:40.262Z,1.65
2023-01-25T04:21:46.816Z,1.63
2023-01-25T04:24:52.604Z,1.64
2023-01-25T04:27:59.788Z,1.62
2023-01-25T04:31:09.248Z,1.62
2023-01-25T04:34:19.631Z,1.65
2023-01-25T04:37:25.444Z,1.67
2023-01-25T04:40:40.660Z,1.66
2023-01-25T04:43:46.313Z,1.63
2023-01-25T04:46:56.697Z,1.64
2023-01-25T04:50:02.466Z,1.64
2023-01-25T04:53:13.132Z,1.65
2023-01-25T04:56:19.112Z,1.65
2023-01-25T04:59:32.704Z,1.67
2023-01-25T05:02:41.243Z,1.69
2023-01-25T05:05:51.112Z,1.73
2023-01-25T05:09:01.024Z,1.76
2023-01-25T05:12:11.822Z,1.79
2023-01-25T05:15:31.682Z,1.81
2023-01-25T05:18:48.329Z,1.81
2023-01-25T05:22:01.658Z,1.82
2023-01-25T05:25:44.986Z,1.83
2023-01-25T05:28:52.711Z,1.75
2023-01-25T05:32:14.721Z,1.72
2023-01-25T05:35:23.017Z,1.72
2023-01-25T05:38:33.513Z,1.71
2023-01-25T05:41:39.274Z,1.69
2023-01-25T05:44:47.889Z,1.69
2023-01-25T05:47:58.023Z,1.72
2023-01-25T05:51:07.577Z,1.70
2023-01-25T05:54:17.135Z,1.71
2023-01-25T05:57:29.810Z,1.77
2023-01-25T06:00:38.007Z,1.80
2023-01-25T06:03:45.052Z,1.83
2023-01-25T06:06:54.486Z,1.83
2023-01-25T06:10:00.831Z,1.81
2023-01-25T06:13:06.381Z,1.79
2023-01-25T06:16:13.669Z,1.74
2023-01-25T06:19:19.562Z,1.63
2023-01-25T06:22:53.189Z,1.63
2023-01-25T06:26:02.061Z,1.56
2023-01-25T06:29:09.369Z,1.51
2023-01-25T06:32:14.781Z,1.46
2023-01-25T06:35:21.592Z,1.42
2023-01-25T06:38:29.719Z,1.43
2023-01-25T06:41:35.998Z,1.46
2023-01-25T06:44:41.787Z,1.49
2023-01-25T06:48:04.874Z,1.42
2023-01-25T06:51:13.322Z,1.47
2023-01-25T06:54:22.556Z,1.52
2023-01-25T06:57:29.524Z,1.59
2023-01-25T07:00:35.793Z,1.65
2023-01-25T07:03:41.781Z,1.69
2023-01-25T07:06:48.230Z,1.71
2023-01-25T07:09:56.387Z,1.73
2023-01-25T07:13:02.566Z,1.76
2023-01-25T07:16:15.056Z,1.78
2023-01-25T07:19:21.296Z,1.82
2023-01-25T07:22:27.084Z,1.83
2023-01-25T07:25:36.097Z,1.81
2023-01-25T07:28:41.532Z,1.78
2023-01-25T07:31:47.851Z,1.75
2023-01-25T07:34:53.181Z,1.72
2023-01-25T07:37:59.543Z,1.72
2023-01-25T07:41:08.094Z,1.71
2023-01-25T07:44:14.427Z,1.71
2023-01-25T07:47:24.603Z,1.72
2023-01-25T07:50:31.588Z,1.75
2023-01-25T07:53:37.008Z,1.76
2023-01-25T07:56:46.018Z,1.78
2023-01-25T07:59:51.382Z,1.82
2023-01-25T08:02:57.637Z,1.82
2023-01-25T08:06:05.348Z,1.80
2023-01-25T08:09:16.222Z,1.78
2023-01-25T08:12:26.524Z,1.72
2023-01-25T08:15:32.857Z,1.76
2023-01-25T08:18:38.243Z,1.72
2023-01-25T08:21:44.839Z,1.71
2023-01-25T08:24:50.843Z,1.67
2023-01-25T08:27:59.888Z,1.71
2023-01-25T08:31:13.111Z,1.63
2023-01-25T08:34:19.379Z,1.70
2023-01-25T08:37:25.897Z,1.69
2023-01-25T08:40:33.146Z,1.67
2023-01-25T08:43:42.718Z,1.69
2023-01-25T08:46:48.968Z,1.66
2023-01-25T08:49:55.518Z,1.69
2023-01-25T08:53:01.799Z,1.73
2023-01-25T08:56:09.301Z,1.74
2023-01-25T08:59:18.421Z,1.76
2023-01-25T09:02:25.223Z,1.79
2023-01-25T09:05:31.859Z,1.83
2023-01-25T09:08:39.485Z,1.88
2023-01-25T09:11:45.958Z,1.94
2023-01-25T09:14:54.173Z,1.97
2023-01-25T09:18:00.978Z,2.01
2023-01-25T09:21:10.721Z,2.00
2023-01-25T09:24:17.838Z,2.02
2023-01-25T09:27:23.846Z,2.02
2023-01-25T09:30:45.036Z,2.01
2023-01-25T09:33:59.526Z,2.03
2023-01-25T09:37:06.204Z,2.03
2023-01-25T09:40:25.732Z,2.06
2023-01-25T09:44:14.387Z,2.07
2023-01-25T09:47:36.839Z,2.09
2023-01-25T09:51:09.327Z,2.13
2023-01-25T09:54:19.800Z,2.15
2023-01-25T09:57:35.168Z,2.16
2023-01-25T10:00:50.626Z,2.18
2023-01-25T10:04:09.075Z,2.22
2023-01-25T10:07:25.610Z,2.22
2023-01-25T10:10:42.363Z,2.27
2023-01-25T10:13:47.837Z,2.28
2023-01-25T10:17:10.099Z,2.30
2023-01-25T10:20:34.657Z,2.33
2023-01-25T10:24:26.510Z,2.35
2023-01-25T10:27:48.687Z,2.39
2023-01-25T10:31:06.463Z,2.37
2023-01-25T10:34:23.449Z,2.36
2023-01-25T10:37:38.988Z,2.37
2023-01-25T10:40:52.881Z,2.35
2023-01-25T10:44:11.249Z,2.34
2023-01-25T10:47:27.792Z,2.34
2023-01-25T10:50:54.874Z,2.38
2023-01-25T10:54:16.869Z,2.39
2023-01-25T10:57:25.935Z,2.45
2023-01-25T11:00:40.717Z,2.52
2023-01-25T11:03:48.038Z,2.59
2023-01-25T11:06:54.092Z,2.40
2023-01-25T11:10:03.176Z,2.63
2023-01-25T11:13:31.017Z,2.67
2023-01-25T11:16:43.528Z,2.69
2023-01-25T11:19:49.488Z,2.69
2023-01-25T11:22:59.158Z,2.66
2023-01-25T11:26:22.795Z,2.65
2023-01-25T11:29:29.004Z,2.66
2023-01-25T11:32:35.616Z,2.68
2023-01-25T11:36:07.927Z,2.67
2023-01-25T11:39:40.852Z,2.69
2023-01-25T11:43:07.026Z,2.73
2023-01-25T11:46:32.771Z,2.76
2023-01-25T11:50:02.258Z,2.77
2023-01-25T11:54:03.339Z,2.85
2023-01-25T11:57:45.121Z,2.93
2023-01-25T12:01:17.240Z,2.55
2023-01-25T12:05:23.391Z,2.86
2023-01-25T12:09:06.373Z,3.14
2023-01-25T12:12:34.376Z,3.17
2023-01-25T12:16:15.751Z,3.22
2023-01-25T12:19:55.018Z,3.25
2023-01-25T12:23:32.743Z,3.26
2023-01-25T12:26:59.598Z,3.22
2023-01-25T12:30:24.237Z,3.21
2023-01-25T12:33:44.134Z,3.22
2023-01-25T12:36:53.241Z,2.69
2023-01-25T12:40:08.789Z,3.07
2023-01-25T12:43:23.768Z,2.97
2023-01-25T12:46:38.152Z,2.95
2023-01-25T12:49:58.009Z,2.85
2023-01-25T12:53:18.339Z,2.80
2023-01-25T12:56:45.888Z,2.70
2023-01-25T13:00:06.593Z,2.68
2023-01-25T13:03:36.725Z,2.65
2023-01-25T13:07:02.936Z,2.54
2023-01-25T13:10:24.048Z,2.44
2023-01-25T13:13:33.493Z,2.43
2023-01-25T13:16:45.268Z,2.47
2023-01-25T13:19:53.602Z,2.45
2023-01-25T13:23:03.748Z,2.51
2023-01-25T13:26:51.225Z,2.55
2023-01-25T13:30:06.623Z,2.57
2023-01-25T13:33:12.929Z,2.60
2023-01-25T13:36:48.894Z,2.64
2023-01-25T13:40:06.040Z,2.48
2023-01-25T13:43:23.655Z,2.51
2023-01-25T13:46:30.227Z,2.49
2023-01-25T13:49:45.800Z,2.37
2023-01-25T13:53:04.111Z,2.36
2023-01-25T13:56:30.855Z,2.27
2023-01-25T13:59:37.135Z,2.24
2023-01-25T14:02:47.557Z,2.21
2023-01-25T14:05:58.088Z,2.18
2023-01-25T14:09:10.444Z,2.17
2023-01-25T14:12:39.663Z,2.14
2023-01-25T14:15:57.716Z,2.05
2023-01-25T14:19:30.038Z,1.95
2023-01-25T14:22:36.149Z,1.87
2023-01-25T14:25:43.997Z,1.87
2023-01-25T14:29:01.959Z,1.83
2023-01-25T14:32:09.535Z,1.72
2023-01-25T14:35:54.263Z,1.58
2023-01-25T14:39:03.897Z,1.49
2023-01-25T14:42:11.191Z,1.43
2023-01-25T14:45:22.080Z,1.45
2023-01-25T14:48:44.621Z,1.47
2023-01-25T14:51:56.792Z,1.31
2023-01-25T14:55:03.880Z,1.29
2023-01-25T14:58:19.725Z,1.38
2023-01-25T15:01:36.716Z,1.38
2023-01-25T15:04:43.472Z,1.39
2023-01-25T15:07:52.289Z,1.22
2023-01-25T15:11:21.496Z,1.21
2023-01-25T15:14:27.858Z,1.23
2023-01-25T15:17:47.605Z,1.22
2023-01-25T15:20:53.231Z,1.23
2023-01-25T15:24:05.112Z,1.27
2023-01-25T15:27:14.936Z,1.29
2023-01-25T15:30:22.717Z,1.22
2023-01-25T15:33:35.413Z,1.26
2023-01-25T15:36:41.908Z,1.25
2023-01-25T15:39:47.456Z,1.22
2023-01-25T15:42:55.826Z,1.28
2023-01-25T15:46:04.413Z,1.33
2023-01-25T15:49:22.607Z,1.29
2023-01-25T15:52:28.068Z,1.27
2023-01-25T15:55:35.432Z,1.24
2023-01-25T15:58:44.909Z,1.25
2023-01-25T16:01:51.239Z,1.27
2023-01-25T16:04:59.753Z,1.34
2023-01-25T16:08:06.054Z,1.43
2023-01-25T16:11:11.407Z,1.46
2023-01-25T16:14:17.818Z,1.45
2023-01-25T16:17:24.927Z,1.44
2023-01-25T16:20:34.369Z,1.42
2023-01-25T16:23:39.835Z,1.44
2023-01-25T16:26:52.893Z,1.47
2023-01-25T16:29:58.473Z,1.51
2023-01-25T16:33:04.789Z,1.57
2023-01-25T16:36:20.391Z,1.57
2023-01-25T16:39:29.288Z,1.56
2023-01-25T16:42:34.742Z,1.60
2023-01-25T16:45:40.936Z,1.60
2023-01-25T16:48:46.610Z,1.63
2023-01-25T16:51:56.182Z,1.66
2023-01-25T16:55:01.971Z,1.70
2023-01-25T16:58:08.441Z,1.76
2023-01-25T17:01:15.773Z,1.58
2023-01-25T17:04:23.103Z,1.84
2023-01-25T17:07:31.412Z,1.85
2023-01-25T17:10:39.369Z,1.86
2023-01-25T17:13:45.039Z,1.91
2023-01-25T17:16:53.607Z,1.76
2023-01-25T17:19:59.280Z,1.92
2023-01-25T17:23:08.574Z,1.95
2023-01-25T17:26:18.338Z,1.95
2023-01-25T17:29:25.109Z,1.97
2023-01-25T17:32:31.393Z,1.95
2023-01-25T17:35:38.679Z,1.93
2023-01-25T17:38:47.235Z,1.88
2023-01-25T17:41:55.201Z,1.83
2023-01-25T17:45:00.670Z,1.82
2023-01-25T17:48:07.766Z,1.78
2023-01-25T17:51:13.524Z,1.73
2023-01-25T17:54:22.706Z,1.75
2023-01-25T17:57:28.125Z,1.75
2023-01-25T18:00:34.819Z,1.66
2023-01-25T18:03:40.210Z,1.64
2023-01-25T18:06:47.347Z,1.62
2023-01-25T18:09:55.696Z,1.58
2023-01-25T18:13:04.833Z,1.57
2023-01-25T18:16:12.976Z,1.53
2023-01-25T18:19:19.712Z,1.53
2023-01-25T18:22:25.852Z,1.54
2023-01-25T18:25:39.292Z,1.54
2023-01-25T18:28:44.670Z,1.51
2023-01-25T18:31:52.489Z,1.51
2023-01-25T18:34:57.943Z,1.54
2023-01-25T18:38:05.203Z,1.58
2023-01-25T18:41:13.659Z,1.58
2023-01-25T18:44:20.054Z,1.55
2023-01-25T18:47:26.548Z,1.53
2023-01-25T18:50:33.029Z,1.50
2023-01-25T18:53:42.292Z,1.47
2023-01-25T18:56:51.324Z,1.36
2023-01-25T18:59:58.949Z,1.35
2023-01-25T19:03:06.112Z,1.31
2023-01-25T19:06:13.073Z,1.22
2023-01-25T19:09:19.414Z,1.16
2023-01-25T19:12:27.715Z,1.09
2023-01-25T19:15:34.221Z,1.01
2023-01-25T19:18:47.150Z,0.97
2023-01-25T19:21:53.468Z,0.92
2023-01-25T19:24:59.201Z,0.92
2023-01-25T19:28:08.323Z,0.92
2023-01-25T19:31:17.037Z,0.85
2023-01-25T19:34:23.676Z,0.74
2023-01-25T19:37:29.374Z,0.66
2023-01-25T19:40:35.722Z,0.55
2023-01-25T19:43:45.166Z,0.43
2023-01-25T19:46:52.133Z,0.36
2023-01-25T19:49:57.683Z,0.32
2023-01-25T19:53:04.371Z,0.21
2023-01-25T19:56:14.512Z,0.09
2023-01-25T19:59:27.820Z,0.19
2023-01-25T20:02:33.616Z,0.18
2023-01-25T20:05:40.219Z,0.12
2023-01-25T20:08:48.671Z,0.06
2023-01-25T20:11:57.388Z,0.11
2023-01-25T20:15:05.684Z,0.12
2023-01-25T20:18:11.983Z,0.08
2023-01-25T20:21:20.824Z,0.03
2023-01-25T20:24:27.557Z,-0.03
2023-01-25T20:27:32.983Z,-0.07
2023-01-25T20:30:42.169Z,-0.02
2023-01-25T20:33:47.738Z,0.05
2023-01-25T20:36:54.861Z,0.07
2023-01-25T20:40:00.362Z,0.11
2023-01-25T20:43:07.127Z,0.16
2023-01-25T20:46:15.366Z,0.22
2023-01-25T20:49:22.443Z,0.26
2023-01-25T20:52:28.166Z,0.29
2023-01-25T20:55:34.785Z,0.33
2023-01-25T20:58:41.481Z,0.33
2023-01-25T21:01:50.875Z,0.32
2023-01-25T21:04:56.383Z,0.28
2023-01-25T21:08:02.944Z,0.18
2023-01-25T21:11:09.527Z,0.09
2023-01-25T21:14:15.852Z,0.06
2023-01-25T21:17:24.326Z,0.10
2023-01-25T21:20:30.763Z,0.08
2023-01-25T21:23:37.147Z,-0.01
2023-01-25T21:26:43.467Z,-0.06
2023-01-25T21:29:49.024Z,-0.05
2023-01-25T21:32:58.192Z,-0.09
2023-01-25T21:36:08.492Z,-0.05
2023-01-25T21:39:15.371Z,-0.03
2023-01-25T21:42:20.782Z,-0.04
2023-01-25T21:45:43.175Z,-0.09
2023-01-25T21:49:07.349Z,-0.13
2023-01-25T21:52:13.818Z,-0.20
2023-01-25T21:55:19.402Z,-0.20
2023-01-25T21:58:25.960Z,-0.24
2023-01-25T22:01:31.312Z,-0.28
2023-01-25T22:04:41.348Z,-0.22
2023-01-25T22:07:46.717Z,-0.19
2023-01-25T22:10:52.920Z,-0.13
2023-01-25T22:13:58.638Z,-0.08
2023-01-25T22:17:05.291Z,-0.07
2023-01-25T22:20:15.294Z,-0.15
2023-01-25T22:23:21.582Z,-0.20
2023-01-25T22:26:35.202Z,-0.18
2023-01-25T22:29:41.426Z,-0.14
2023-01-25T22:32:46.803Z,-0.15
2023-01-25T22:35:55.856Z,-0.15
2023-01-25T22:39:01.868Z,-0.18
2023-01-25T22:42:08.385Z,-0.15
2023-01-25T22:45:14.110Z,-0.13
2023-01-25T22:48:20.619Z,-0.10
2023-01-25T22:51:32.957Z,-0.13
2023-01-25T22:54:39.977Z,-0.15
2023-01-25T22:57:45.383Z,-0.16
2023-01-25T23:00:51.643Z,-0.14
2023-01-25T23:03:57.567Z,-0.16
2023-01-25T23:07:12.160Z,-0.25
2023-01-25T23:10:17.993Z,-0.35
2023-01-25T23:13:24.239Z,-0.42
2023-01-25T23:16:29.557Z,-0.41
2023-01-25T23:19:33.091Z,-0.45
2023-01-25T23:22:41.803Z,-0.42
2023-01-25T23:25:49.901Z,-0.38
2023-01-25T23:28:58.474Z,-0.36
2023-01-25T23:32:04.745Z,-0.36
2023-01-25T23:35:11.108Z,-0.36
2023-01-25T23:38:20.061Z,-0.37
2023-01-25T23:41:37.793Z,-0.36
2023-01-25T23:44:46.871Z,-0.33
2023-01-25T23:47:52.291Z,-0.38
2023-01-25T23:51:02.937Z,-0.38
2023-01-25T23:54:11.688Z,-0.36
2023-01-25T23:57:17.919Z,-0.36
